createdAt,value
2017-06-15T00:00:04.201Z,16.22
2017-06-15T00:00:08.504Z,16.22
2017-06-15T00:00:12.930Z,16.21
2017-06-15T00:00:17.349Z,16.21
2017-06-15T00:00:21.775Z,16.2
2017-06-15T00:00:26.079Z,16.2
2017-06-15T00:00:30.501Z,16.2
2017-06-15T00:00:34.926Z,16.2
2017-06-15T00:00:39.231Z,16.19
2017-06-15T00:00:43.653Z,16.19
2017-06-15T00:00:48.077Z,16.19
2017-06-15T00:00:52.513Z,16.18
2017-06-15T00:00:56.705Z,16.18
2017-06-15T00:01:01.130Z,16.17
2017-06-15T00:01:05.319Z,16.17
2017-06-15T00:01:09.624Z,16.17
2017-06-15T00:01:13.819Z,16.16
2017-06-15T00:01:18.246Z,16.16
2017-06-15T00:01:22.669Z,16.15
2017-06-15T00:01:26.864Z,16.15
2017-06-15T00:01:31.285Z,16.15
2017-06-15T00:01:35.712Z,16.15
2017-06-15T00:01:40.136Z,16.14
2017-06-15T00:01:44.442Z,16.14
2017-06-15T00:01:48.862Z,16.13
2017-06-15T00:01:53.167Z,16.12
2017-06-15T00:01:57.586Z,16.11
2017-06-15T00:02:02.013Z,16.11
2017-06-15T00:02:06.323Z,16.11
2017-06-15T00:02:10.629Z,16.1
2017-06-15T00:02:14.928Z,16.1
2017-06-15T00:02:19.350Z,16.1
2017-06-15T00:02:23.776Z,16.1
2017-06-15T00:02:28.196Z,16.09
2017-06-15T00:02:32.497Z,16.08
2017-06-15T00:02:36.918Z,16.07
2017-06-15T00:02:41.344Z,16.08
2017-06-15T00:02:45.766Z,16.06
2017-06-15T00:02:50.193Z,16.05
2017-06-15T00:02:54.623Z,16.05
2017-06-15T00:02:58.934Z,16.06
2017-06-15T00:03:03.358Z,16.04
2017-06-15T00:03:07.781Z,16.03
2017-06-15T00:03:12.213Z,16.03
2017-06-15T00:03:16.521Z,16.02
2017-06-15T00:03:20.945Z,16.02
2017-06-15T00:03:25.370Z,16.02
2017-06-15T00:03:29.795Z,16.01
2017-06-15T00:03:34.219Z,16.01
2017-06-15T00:03:38.532Z,16
2017-06-15T00:03:42.839Z,16
2017-06-15T00:03:47.263Z,16
2017-06-15T00:03:51.684Z,15.99
2017-06-15T00:03:56.109Z,15.99
2017-06-15T00:04:00.532Z,15.98
2017-06-15T00:04:04.962Z,15.98
2017-06-15T00:04:09.154Z,15.96
2017-06-15T00:04:13.461Z,15.97
2017-06-15T00:04:17.764Z,15.96
2017-06-15T00:04:22.183Z,15.96
2017-06-15T00:04:26.609Z,15.96
2017-06-15T00:04:31.059Z,15.95
2017-06-15T00:04:35.248Z,15.94
2017-06-15T00:04:39.548Z,15.94
2017-06-15T00:04:43.852Z,15.94
2017-06-15T00:04:48.278Z,15.93
2017-06-15T00:04:52.702Z,15.93
2017-06-15T00:04:57.160Z,15.93
2017-06-15T00:05:01.583Z,15.92
2017-06-15T00:05:05.772Z,15.91
2017-06-15T00:05:10.076Z,15.91
2017-06-15T00:05:14.383Z,15.91
2017-06-15T00:05:18.812Z,15.9
2017-06-15T00:05:23.121Z,15.9
2017-06-15T00:05:27.540Z,15.89
2017-06-15T00:05:31.962Z,15.89
2017-06-15T00:05:36.381Z,15.89
2017-06-15T00:05:40.803Z,15.88
2017-06-15T00:05:45.235Z,15.88
2017-06-15T00:05:49.664Z,15.87
2017-06-15T00:05:54.088Z,15.88
2017-06-15T00:05:58.517Z,15.87
2017-06-15T00:06:02.942Z,15.86
2017-06-15T00:06:07.244Z,15.86
2017-06-15T00:06:11.431Z,15.86
2017-06-15T00:06:15.858Z,15.86
2017-06-15T00:06:20.286Z,15.85
2017-06-15T00:06:24.708Z,15.84
2017-06-15T00:06:29.135Z,15.84
2017-06-15T00:06:33.556Z,15.84
2017-06-15T00:06:37.859Z,15.83
2017-06-15T00:06:42.326Z,15.83
2017-06-15T00:06:46.748Z,15.82
2017-06-15T00:06:51.176Z,15.82
2017-06-15T00:06:55.595Z,15.81
2017-06-15T00:07:00.017Z,15.81
2017-06-15T00:07:04.749Z,15.81
2017-06-15T00:07:09.058Z,15.81
2017-06-15T00:07:13.477Z,15.79
2017-06-15T00:07:17.900Z,15.79
2017-06-15T00:07:22.324Z,15.78
2017-06-15T00:07:26.744Z,15.77
2017-06-15T00:07:31.188Z,15.77
2017-06-15T00:07:35.615Z,15.77
2017-06-15T00:07:40.037Z,15.76
2017-06-15T00:07:44.457Z,15.75
2017-06-15T00:07:48.876Z,15.76
2017-06-15T00:07:53.066Z,15.74
2017-06-15T00:07:57.496Z,15.73
2017-06-15T00:08:02.096Z,15.74
2017-06-15T00:08:06.513Z,15.72
2017-06-15T00:08:10.821Z,15.73
2017-06-15T00:08:15.127Z,15.72
2017-06-15T00:08:19.559Z,15.72
2017-06-15T00:08:23.891Z,15.7
2017-06-15T00:08:28.311Z,15.71
2017-06-15T00:08:32.730Z,15.7
2017-06-15T00:08:37.153Z,15.69
2017-06-15T00:08:41.338Z,15.69
2017-06-15T00:08:45.802Z,15.69
2017-06-15T00:08:50.223Z,15.68
2017-06-15T00:08:54.532Z,15.68
2017-06-15T00:08:58.836Z,15.67
2017-06-15T00:09:03.255Z,15.67
2017-06-15T00:09:07.684Z,15.66
2017-06-15T00:09:12.149Z,15.66
2017-06-15T00:09:16.451Z,15.66
2017-06-15T00:09:20.869Z,15.64
2017-06-15T00:09:25.292Z,15.65
2017-06-15T00:09:29.486Z,15.63
2017-06-15T00:09:33.675Z,15.63
2017-06-15T00:09:38.101Z,15.63
2017-06-15T00:09:42.533Z,15.62
2017-06-15T00:09:46.964Z,15.62
2017-06-15T00:09:51.386Z,15.61
2017-06-15T00:09:55.808Z,15.61
2017-06-15T00:10:00.246Z,15.6
2017-06-15T00:10:04.321Z,15.6
2017-06-15T00:10:08.512Z,15.59
2017-06-15T00:10:12.817Z,15.59
2017-06-15T00:10:17.011Z,15.58
2017-06-15T00:10:21.328Z,15.59
2017-06-15T00:10:25.637Z,15.57
2017-06-15T00:10:30.058Z,15.57
2017-06-15T00:10:34.480Z,15.56
2017-06-15T00:10:38.669Z,15.56
2017-06-15T00:10:43.094Z,15.55
2017-06-15T00:10:47.521Z,15.55
2017-06-15T00:10:51.940Z,15.55
2017-06-15T00:10:56.357Z,15.55
2017-06-15T00:11:00.775Z,15.54
2017-06-15T00:11:05.206Z,15.54
2017-06-15T00:11:09.520Z,15.53
2017-06-15T00:11:13.704Z,15.54
2017-06-15T00:11:18.127Z,15.53
2017-06-15T00:11:22.544Z,15.53
2017-06-15T00:11:26.976Z,15.52
2017-06-15T00:11:31.419Z,15.51
2017-06-15T00:11:35.847Z,15.51
2017-06-15T00:11:40.152Z,15.51
2017-06-15T00:11:44.573Z,15.49
2017-06-15T00:11:48.885Z,15.5
2017-06-15T00:11:53.313Z,15.49
2017-06-15T00:11:57.732Z,15.48
2017-06-15T00:12:01.939Z,15.48
2017-06-15T00:12:06.367Z,15.48
2017-06-15T00:12:10.672Z,15.48
2017-06-15T00:12:15.015Z,15.48
2017-06-15T00:12:19.437Z,15.47
2017-06-15T00:12:24.010Z,15.47
2017-06-15T00:12:28.309Z,15.46
2017-06-15T00:12:32.730Z,15.45
2017-06-15T00:12:37.039Z,15.46
2017-06-15T00:12:41.462Z,15.45
2017-06-15T00:12:45.883Z,15.44
2017-06-15T00:12:50.312Z,15.44
2017-06-15T00:12:54.739Z,15.43
2017-06-15T00:12:59.044Z,15.43
2017-06-15T00:13:03.424Z,15.43
2017-06-15T00:13:07.727Z,15.42
2017-06-15T00:13:12.157Z,15.42
2017-06-15T00:13:16.580Z,15.4
2017-06-15T00:13:21.003Z,15.41
2017-06-15T00:13:25.430Z,15.4
2017-06-15T00:13:29.861Z,15.39
2017-06-15T00:13:34.288Z,15.38
2017-06-15T00:13:38.705Z,15.38
2017-06-15T00:13:43.125Z,15.37
2017-06-15T00:13:47.549Z,15.37
2017-06-15T00:13:51.977Z,15.36
2017-06-15T00:13:56.395Z,15.36
2017-06-15T00:14:00.699Z,15.36
2017-06-15T00:14:05.120Z,15.35
2017-06-15T00:14:09.426Z,15.35
2017-06-15T00:14:13.628Z,15.34
2017-06-15T00:14:18.049Z,15.33
2017-06-15T00:14:22.474Z,15.33
2017-06-15T00:14:26.902Z,15.33
2017-06-15T00:14:31.326Z,15.32
2017-06-15T00:14:35.748Z,15.32
2017-06-15T00:14:39.941Z,15.32
2017-06-15T00:14:44.365Z,15.31
2017-06-15T00:14:48.791Z,15.3
2017-06-15T00:14:53.211Z,15.31
2017-06-15T00:14:57.398Z,15.31
2017-06-15T00:15:02.126Z,15.3
2017-06-15T00:15:06.560Z,15.3
2017-06-15T00:15:10.991Z,15.3
2017-06-15T00:15:15.413Z,15.28
2017-06-15T00:15:19.730Z,15.29
2017-06-15T00:15:24.153Z,15.28
2017-06-15T00:15:28.594Z,15.28
2017-06-15T00:15:33.028Z,15.28
2017-06-15T00:15:37.447Z,15.28
2017-06-15T00:15:41.752Z,15.27
2017-06-15T00:15:46.176Z,15.27
2017-06-15T00:15:50.482Z,15.27
2017-06-15T00:15:54.948Z,15.26
2017-06-15T00:15:59.134Z,15.25
2017-06-15T00:16:03.556Z,15.26
2017-06-15T00:16:07.874Z,15.25
2017-06-15T00:16:12.303Z,15.25
2017-06-15T00:16:16.720Z,15.24
2017-06-15T00:16:21.139Z,15.23
2017-06-15T00:16:25.557Z,15.23
2017-06-15T00:16:29.981Z,15.23
2017-06-15T00:16:34.430Z,15.23
2017-06-15T00:16:38.732Z,15.22
2017-06-15T00:16:43.155Z,15.23
2017-06-15T00:16:47.573Z,15.21
2017-06-15T00:16:52.000Z,15.21
2017-06-15T00:16:56.454Z,15.21
2017-06-15T00:17:00.893Z,15.2
2017-06-15T00:17:05.245Z,15.2
2017-06-15T00:17:09.548Z,15.2
2017-06-15T00:17:13.967Z,15.2
2017-06-15T00:17:18.274Z,15.19
2017-06-15T00:17:22.701Z,15.18
2017-06-15T00:17:27.122Z,15.18
2017-06-15T00:17:31.547Z,15.17
2017-06-15T00:17:35.966Z,15.18
2017-06-15T00:17:40.396Z,15.17
2017-06-15T00:17:44.853Z,15.16
2017-06-15T00:17:49.284Z,15.16
2017-06-15T00:17:53.706Z,15.16
2017-06-15T00:17:58.009Z,15.15
2017-06-15T00:18:02.484Z,15.15
2017-06-15T00:18:06.793Z,15.15
2017-06-15T00:18:10.982Z,15.14
2017-06-15T00:18:15.290Z,15.14
2017-06-15T00:18:19.718Z,15.15
2017-06-15T00:18:24.022Z,15.13
2017-06-15T00:18:28.441Z,15.14
2017-06-15T00:18:32.867Z,15.13
2017-06-15T00:18:37.201Z,15.14
2017-06-15T00:18:41.623Z,15.12
2017-06-15T00:18:45.925Z,15.13
2017-06-15T00:18:50.343Z,15.13
2017-06-15T00:18:54.659Z,15.12
2017-06-15T00:18:59.092Z,15.12
2017-06-15T00:19:03.718Z,15.11
2017-06-15T00:19:08.144Z,15.12
2017-06-15T00:19:12.566Z,15.12
2017-06-15T00:19:16.869Z,15.11
2017-06-15T00:19:21.294Z,15.11
2017-06-15T00:19:25.603Z,15.11
2017-06-15T00:19:29.907Z,15.12
2017-06-15T00:19:34.331Z,15.1
2017-06-15T00:19:38.760Z,15.1
2017-06-15T00:19:43.065Z,15.11
2017-06-15T00:19:47.491Z,15.1
2017-06-15T00:19:51.913Z,15.09
2017-06-15T00:19:56.331Z,15.09
2017-06-15T00:20:00.754Z,15.09
2017-06-15T00:20:05.409Z,15.09
2017-06-15T00:20:09.723Z,15.08
2017-06-15T00:20:14.179Z,15.08
2017-06-15T00:20:18.597Z,15.08
2017-06-15T00:20:23.016Z,15.08
2017-06-15T00:20:27.439Z,15.07
2017-06-15T00:20:31.871Z,15.08
2017-06-15T00:20:36.302Z,15.08
2017-06-15T00:20:40.606Z,15.07
2017-06-15T00:20:45.033Z,15.08
2017-06-15T00:20:49.342Z,15.08
2017-06-15T00:20:53.765Z,15.07
2017-06-15T00:20:58.189Z,15.07
2017-06-15T00:21:03.003Z,15.07
2017-06-15T00:21:07.430Z,15.07
2017-06-15T00:21:11.616Z,15.07
2017-06-15T00:21:15.932Z,15.06
2017-06-15T00:21:20.356Z,15.07
2017-06-15T00:21:24.545Z,15.06
2017-06-15T00:21:28.748Z,15.06
2017-06-15T00:21:33.176Z,15.06
2017-06-15T00:21:37.604Z,15.06
2017-06-15T00:21:42.031Z,15.06
2017-06-15T00:21:46.448Z,15.06
2017-06-15T00:21:50.870Z,15.06
2017-06-15T00:21:55.289Z,15.04
2017-06-15T00:21:59.708Z,15.05
2017-06-15T00:22:03.898Z,15.05
2017-06-15T00:22:08.207Z,15.05
2017-06-15T00:22:12.629Z,15.04
2017-06-15T00:22:16.699Z,15.04
2017-06-15T00:22:20.996Z,15.04
2017-06-15T00:22:25.420Z,15.04
2017-06-15T00:22:29.851Z,15.04
2017-06-15T00:22:34.270Z,15.04
2017-06-15T00:22:38.691Z,15.02
2017-06-15T00:22:43.113Z,15.03
2017-06-15T00:22:47.535Z,15.03
2017-06-15T00:22:51.968Z,15.03
2017-06-15T00:22:56.402Z,15.02
2017-06-15T00:23:00.714Z,15.03
2017-06-15T00:23:05.024Z,15.03
2017-06-15T00:23:09.211Z,15.02
2017-06-15T00:23:13.631Z,15.02
2017-06-15T00:23:18.058Z,15.02
2017-06-15T00:23:22.363Z,15.02
2017-06-15T00:23:26.782Z,15.01
2017-06-15T00:23:31.115Z,15.02
2017-06-15T00:23:35.537Z,15.02
2017-06-15T00:23:39.967Z,15.01
2017-06-15T00:23:44.270Z,15.01
2017-06-15T00:23:48.693Z,15.01
2017-06-15T00:23:53.117Z,15.01
2017-06-15T00:23:57.544Z,15.01
2017-06-15T00:24:01.732Z,15.01
2017-06-15T00:24:06.073Z,15
2017-06-15T00:24:10.496Z,15
2017-06-15T00:24:14.804Z,15
2017-06-15T00:24:19.227Z,15
2017-06-15T00:24:23.533Z,15
2017-06-15T00:24:27.959Z,14.99
2017-06-15T00:24:32.262Z,15
2017-06-15T00:24:36.684Z,14.99
2017-06-15T00:24:41.110Z,14.99
2017-06-15T00:24:45.530Z,14.98
2017-06-15T00:24:49.845Z,14.99
2017-06-15T00:24:54.272Z,14.98
2017-06-15T00:24:58.702Z,14.98
2017-06-15T00:25:03.209Z,14.98
2017-06-15T00:25:07.634Z,14.98
2017-06-15T00:25:12.066Z,14.98
2017-06-15T00:25:16.372Z,14.98
2017-06-15T00:25:20.794Z,14.98
2017-06-15T00:25:25.224Z,14.97
2017-06-15T00:25:29.546Z,14.98
2017-06-15T00:25:33.970Z,14.98
2017-06-15T00:25:38.157Z,14.97
2017-06-15T00:25:42.610Z,14.98
2017-06-15T00:25:47.038Z,14.97
2017-06-15T00:25:51.459Z,14.97
2017-06-15T00:25:55.875Z,14.97
2017-06-15T00:26:00.298Z,14.97
2017-06-15T00:26:04.980Z,14.97
2017-06-15T00:26:09.409Z,14.96
2017-06-15T00:26:13.593Z,14.96
2017-06-15T00:26:17.897Z,14.97
2017-06-15T00:26:22.322Z,14.96
2017-06-15T00:26:26.513Z,14.96
2017-06-15T00:26:30.959Z,14.96
2017-06-15T00:26:35.380Z,14.96
2017-06-15T00:26:39.807Z,14.95
2017-06-15T00:26:44.115Z,14.95
2017-06-15T00:26:48.543Z,14.96
2017-06-15T00:26:52.976Z,14.95
2017-06-15T00:26:57.398Z,14.96
2017-06-15T00:27:01.826Z,14.95
2017-06-15T00:27:06.059Z,14.95
2017-06-15T00:27:10.484Z,14.94
2017-06-15T00:27:14.560Z,14.94
2017-06-15T00:27:18.986Z,14.95
2017-06-15T00:27:23.411Z,14.95
2017-06-15T00:27:27.768Z,14.95
2017-06-15T00:27:32.071Z,14.94
2017-06-15T00:27:36.387Z,14.93
2017-06-15T00:27:40.812Z,14.94
2017-06-15T00:27:45.235Z,14.95
2017-06-15T00:27:49.659Z,14.94
2017-06-15T00:27:54.084Z,14.93
2017-06-15T00:27:58.510Z,14.94
2017-06-15T00:28:02.700Z,14.93
2017-06-15T00:28:07.125Z,14.93
2017-06-15T00:28:11.547Z,14.93
2017-06-15T00:28:15.739Z,14.93
2017-06-15T00:28:20.158Z,14.92
2017-06-15T00:28:24.584Z,14.93
2017-06-15T00:28:28.826Z,14.94
2017-06-15T00:28:33.126Z,14.93
2017-06-15T00:28:37.545Z,14.93
2017-06-15T00:28:41.967Z,14.93
2017-06-15T00:28:46.390Z,14.93
2017-06-15T00:28:50.485Z,14.92
2017-06-15T00:28:54.909Z,14.93
2017-06-15T00:28:59.327Z,14.93
2017-06-15T00:29:03.635Z,14.94
2017-06-15T00:29:08.059Z,14.92
2017-06-15T00:29:12.488Z,14.93
2017-06-15T00:29:16.680Z,14.93
2017-06-15T00:29:21.101Z,14.92
2017-06-15T00:29:25.521Z,14.92
2017-06-15T00:29:29.948Z,14.92
2017-06-15T00:29:34.374Z,14.92
2017-06-15T00:29:38.686Z,14.91
2017-06-15T00:29:42.755Z,14.92
2017-06-15T00:29:47.178Z,14.92
2017-06-15T00:29:51.599Z,14.92
2017-06-15T00:29:56.023Z,14.91
2017-06-15T00:30:00.446Z,14.92
2017-06-15T00:30:04.893Z,14.92
2017-06-15T00:30:09.323Z,14.92
2017-06-15T00:30:13.623Z,14.92
2017-06-15T00:30:18.050Z,14.91
2017-06-15T00:30:22.478Z,14.92
2017-06-15T00:30:26.673Z,14.92
2017-06-15T00:30:30.978Z,14.91
2017-06-15T00:30:35.168Z,14.91
2017-06-15T00:30:39.591Z,14.91
2017-06-15T00:30:44.010Z,14.92
2017-06-15T00:30:48.436Z,14.91
2017-06-15T00:30:52.873Z,14.91
2017-06-15T00:30:57.175Z,14.92
2017-06-15T00:31:01.596Z,14.91
2017-06-15T00:31:06.169Z,14.91
2017-06-15T00:31:10.594Z,14.92
2017-06-15T00:31:14.893Z,14.91
2017-06-15T00:31:19.193Z,14.91
2017-06-15T00:31:23.611Z,14.91
2017-06-15T00:31:28.051Z,14.91
2017-06-15T00:31:32.361Z,14.91
2017-06-15T00:31:36.783Z,14.91
2017-06-15T00:31:41.203Z,14.91
2017-06-15T00:31:45.639Z,14.91
2017-06-15T00:31:50.058Z,14.92
2017-06-15T00:31:54.484Z,14.92
2017-06-15T00:31:58.912Z,14.92
2017-06-15T00:32:03.571Z,14.92
2017-06-15T00:32:07.998Z,14.91
2017-06-15T00:32:12.424Z,14.92
2017-06-15T00:32:16.845Z,14.92
2017-06-15T00:32:21.276Z,14.92
2017-06-15T00:32:25.583Z,14.92
2017-06-15T00:32:29.903Z,14.91
2017-06-15T00:32:34.329Z,14.92
2017-06-15T00:32:38.632Z,14.92
2017-06-15T00:32:43.055Z,14.92
2017-06-15T00:32:47.515Z,14.91
2017-06-15T00:32:51.817Z,14.92
2017-06-15T00:32:56.119Z,14.92
2017-06-15T00:33:00.537Z,14.92
2017-06-15T00:33:05.257Z,14.92
2017-06-15T00:33:09.681Z,14.91
2017-06-15T00:33:14.144Z,14.92
2017-06-15T00:33:18.566Z,14.92
2017-06-15T00:33:22.981Z,14.92
2017-06-15T00:33:27.289Z,14.93
2017-06-15T00:33:31.729Z,14.92
2017-06-15T00:33:36.150Z,14.92
2017-06-15T00:33:40.332Z,14.92
2017-06-15T00:33:44.751Z,14.92
2017-06-15T00:33:49.179Z,14.92
2017-06-15T00:33:53.600Z,14.93
2017-06-15T00:33:58.032Z,14.93
2017-06-15T00:34:02.343Z,14.93
2017-06-15T00:34:06.766Z,14.92
2017-06-15T00:34:11.200Z,14.92
2017-06-15T00:34:15.508Z,14.92
2017-06-15T00:34:19.927Z,14.92
2017-06-15T00:34:24.349Z,14.92
2017-06-15T00:34:28.790Z,14.92
2017-06-15T00:34:32.975Z,14.92
2017-06-15T00:34:37.401Z,14.93
2017-06-15T00:34:41.590Z,14.93
2017-06-15T00:34:46.015Z,14.92
2017-06-15T00:34:50.456Z,14.93
2017-06-15T00:34:54.878Z,14.93
2017-06-15T00:34:59.299Z,14.93
2017-06-15T00:35:03.605Z,14.93
2017-06-15T00:35:07.800Z,14.93
2017-06-15T00:35:12.232Z,14.93
2017-06-15T00:35:16.537Z,14.93
2017-06-15T00:35:20.963Z,14.94
2017-06-15T00:35:25.384Z,14.94
2017-06-15T00:35:29.810Z,14.93
2017-06-15T00:35:34.271Z,14.94
2017-06-15T00:35:38.463Z,14.93
2017-06-15T00:35:42.767Z,14.93
2017-06-15T00:35:47.184Z,14.94
2017-06-15T00:35:51.612Z,14.94
2017-06-15T00:35:55.807Z,14.94
2017-06-15T00:36:00.238Z,14.94
2017-06-15T00:36:04.895Z,14.93
2017-06-15T00:36:09.204Z,14.95
2017-06-15T00:36:13.510Z,14.95
2017-06-15T00:36:17.936Z,14.94
2017-06-15T00:36:22.365Z,14.94
2017-06-15T00:36:26.788Z,14.95
2017-06-15T00:36:31.092Z,14.94
2017-06-15T00:36:35.275Z,14.95
2017-06-15T00:36:39.582Z,14.95
2017-06-15T00:36:44.012Z,14.94
2017-06-15T00:36:48.437Z,14.94
2017-06-15T00:36:52.861Z,14.95
2017-06-15T00:36:57.171Z,14.95
2017-06-15T00:37:01.473Z,14.95
2017-06-15T00:37:06.102Z,14.95
2017-06-15T00:37:10.532Z,14.95
2017-06-15T00:37:14.951Z,14.95
2017-06-15T00:37:19.260Z,14.95
2017-06-15T00:37:23.683Z,14.96
2017-06-15T00:37:28.120Z,14.95
2017-06-15T00:37:32.550Z,14.95
2017-06-15T00:37:36.736Z,14.96
2017-06-15T00:37:41.162Z,14.95
2017-06-15T00:37:45.477Z,14.95
2017-06-15T00:37:49.781Z,14.96
2017-06-15T00:37:54.205Z,14.96
2017-06-15T00:37:58.631Z,14.96
2017-06-15T00:38:03.052Z,14.96
2017-06-15T00:38:07.483Z,14.95
2017-06-15T00:38:11.792Z,14.96
2017-06-15T00:38:15.988Z,14.96
2017-06-15T00:38:20.414Z,14.96
2017-06-15T00:38:24.605Z,14.96
2017-06-15T00:38:29.024Z,14.96
2017-06-15T00:38:33.442Z,14.95
2017-06-15T00:38:37.868Z,14.96
2017-06-15T00:38:42.295Z,14.95
2017-06-15T00:38:46.713Z,14.96
2017-06-15T00:38:51.139Z,14.95
2017-06-15T00:38:55.566Z,14.95
2017-06-15T00:38:59.997Z,14.95
2017-06-15T00:39:04.438Z,14.96
2017-06-15T00:39:08.859Z,14.96
2017-06-15T00:39:13.288Z,14.95
2017-06-15T00:39:17.479Z,14.95
2017-06-15T00:39:21.896Z,14.95
2017-06-15T00:39:26.205Z,14.96
2017-06-15T00:39:30.560Z,14.95
2017-06-15T00:39:34.985Z,14.95
2017-06-15T00:39:39.295Z,14.96
2017-06-15T00:39:43.714Z,14.96
2017-06-15T00:39:48.141Z,14.96
2017-06-15T00:39:52.572Z,14.96
2017-06-15T00:39:57.007Z,14.96
2017-06-15T00:40:01.429Z,14.95
2017-06-15T00:40:05.617Z,14.95
2017-06-15T00:40:10.049Z,14.96
2017-06-15T00:40:14.361Z,14.95
2017-06-15T00:40:18.560Z,14.95
2017-06-15T00:40:22.987Z,14.95
2017-06-15T00:40:27.409Z,14.95
2017-06-15T00:40:31.860Z,14.95
2017-06-15T00:40:36.282Z,14.95
2017-06-15T00:40:40.589Z,14.95
2017-06-15T00:40:45.012Z,14.95
2017-06-15T00:40:49.441Z,14.95
2017-06-15T00:40:53.862Z,14.95
2017-06-15T00:40:58.051Z,14.95
2017-06-15T00:41:02.478Z,14.95
2017-06-15T00:41:06.906Z,14.95
2017-06-15T00:41:11.325Z,14.95
2017-06-15T00:41:15.394Z,14.95
2017-06-15T00:41:19.816Z,14.94
2017-06-15T00:41:24.242Z,14.94
2017-06-15T00:41:28.671Z,14.95
2017-06-15T00:41:33.137Z,14.94
2017-06-15T00:41:37.556Z,14.94
2017-06-15T00:41:41.861Z,14.94
2017-06-15T00:41:46.167Z,14.94
2017-06-15T00:41:50.589Z,14.94
2017-06-15T00:41:55.009Z,14.94
2017-06-15T00:41:59.229Z,14.94
2017-06-15T00:42:03.649Z,14.93
2017-06-15T00:42:07.949Z,14.93
2017-06-15T00:42:12.371Z,14.93
2017-06-15T00:42:16.677Z,14.94
2017-06-15T00:42:21.103Z,14.93
2017-06-15T00:42:25.528Z,14.93
2017-06-15T00:42:29.949Z,14.93
2017-06-15T00:42:34.374Z,14.92
2017-06-15T00:42:38.798Z,14.93
2017-06-15T00:42:43.105Z,14.93
2017-06-15T00:42:47.452Z,14.93
2017-06-15T00:42:51.759Z,14.92
2017-06-15T00:42:56.182Z,14.93
2017-06-15T00:43:00.605Z,14.92
2017-06-15T00:43:05.031Z,14.92
2017-06-15T00:43:09.457Z,14.92
2017-06-15T00:43:13.885Z,14.92
2017-06-15T00:43:18.307Z,14.92
2017-06-15T00:43:22.736Z,14.92
2017-06-15T00:43:27.161Z,14.92
2017-06-15T00:43:31.601Z,14.92
2017-06-15T00:43:35.907Z,14.92
2017-06-15T00:43:40.095Z,14.92
2017-06-15T00:43:44.514Z,14.92
2017-06-15T00:43:48.825Z,14.92
2017-06-15T00:43:53.129Z,14.91
2017-06-15T00:43:57.435Z,14.92
2017-06-15T00:44:01.750Z,14.92
2017-06-15T00:44:06.253Z,14.92
2017-06-15T00:44:10.553Z,14.92
2017-06-15T00:44:14.979Z,14.91
2017-06-15T00:44:19.310Z,14.91
2017-06-15T00:44:23.620Z,14.91
2017-06-15T00:44:28.056Z,14.91
2017-06-15T00:44:32.487Z,14.91
2017-06-15T00:44:36.794Z,14.9
2017-06-15T00:44:41.102Z,14.91
2017-06-15T00:44:45.533Z,14.91
2017-06-15T00:44:49.877Z,14.91
2017-06-15T00:44:54.300Z,14.91
2017-06-15T00:44:58.732Z,14.91
2017-06-15T00:45:03.236Z,14.91
2017-06-15T00:45:07.543Z,14.91
2017-06-15T00:45:11.977Z,14.91
2017-06-15T00:45:16.286Z,14.91
2017-06-15T00:45:20.715Z,14.91
2017-06-15T00:45:24.784Z,14.9
2017-06-15T00:45:29.206Z,14.91
2017-06-15T00:45:33.634Z,14.91
2017-06-15T00:45:38.064Z,14.9
2017-06-15T00:45:42.486Z,14.91
2017-06-15T00:45:46.903Z,14.91
2017-06-15T00:45:51.210Z,14.9
2017-06-15T00:45:55.635Z,14.89
2017-06-15T00:46:00.063Z,14.9
2017-06-15T00:46:04.429Z,14.9
2017-06-15T00:46:08.856Z,14.9
2017-06-15T00:46:13.278Z,14.9
2017-06-15T00:46:17.584Z,14.91
2017-06-15T00:46:22.055Z,14.9
2017-06-15T00:46:26.484Z,14.9
2017-06-15T00:46:30.906Z,14.9
2017-06-15T00:46:35.329Z,14.9
2017-06-15T00:46:39.632Z,14.9
2017-06-15T00:46:43.935Z,14.89
2017-06-15T00:46:48.257Z,14.9
2017-06-15T00:46:52.683Z,14.9
2017-06-15T00:46:57.111Z,14.89
2017-06-15T00:47:01.411Z,14.89
2017-06-15T00:47:05.832Z,14.89
2017-06-15T00:47:10.286Z,14.89
2017-06-15T00:47:14.709Z,14.89
2017-06-15T00:47:19.019Z,14.89
2017-06-15T00:47:23.442Z,14.89
2017-06-15T00:47:27.865Z,14.89
2017-06-15T00:47:32.291Z,14.88
2017-06-15T00:47:36.755Z,14.88
2017-06-15T00:47:41.061Z,14.88
2017-06-15T00:47:45.477Z,14.89
2017-06-15T00:47:49.662Z,14.89
2017-06-15T00:47:54.084Z,14.89
2017-06-15T00:47:58.512Z,14.89
2017-06-15T00:48:03.083Z,14.89
2017-06-15T00:48:07.504Z,14.89
2017-06-15T00:48:11.923Z,14.89
2017-06-15T00:48:16.108Z,14.88
2017-06-15T00:48:20.544Z,14.88
2017-06-15T00:48:24.964Z,14.89
2017-06-15T00:48:29.387Z,14.88
2017-06-15T00:48:33.808Z,14.88
2017-06-15T00:48:38.224Z,14.88
2017-06-15T00:48:42.415Z,14.88
2017-06-15T00:48:46.843Z,14.87
2017-06-15T00:48:51.189Z,14.88
2017-06-15T00:48:55.494Z,14.89
2017-06-15T00:48:59.916Z,14.88
2017-06-15T00:49:04.489Z,14.89
2017-06-15T00:49:08.909Z,14.89
2017-06-15T00:49:13.344Z,14.88
2017-06-15T00:49:17.528Z,14.88
2017-06-15T00:49:21.947Z,14.88
2017-06-15T00:49:26.373Z,14.88
2017-06-15T00:49:30.797Z,14.88
2017-06-15T00:49:35.230Z,14.88
2017-06-15T00:49:39.540Z,14.88
2017-06-15T00:49:43.959Z,14.89
2017-06-15T00:49:48.266Z,14.88
2017-06-15T00:49:52.580Z,14.88
2017-06-15T00:49:57.008Z,14.89
2017-06-15T00:50:01.429Z,14.89
2017-06-15T00:50:05.868Z,14.88
2017-06-15T00:50:10.056Z,14.89
2017-06-15T00:50:14.481Z,14.89
2017-06-15T00:50:18.904Z,14.89
2017-06-15T00:50:23.330Z,14.88
2017-06-15T00:50:27.793Z,14.89
2017-06-15T00:50:32.213Z,14.89
2017-06-15T00:50:36.519Z,14.88
2017-06-15T00:50:40.828Z,14.89
2017-06-15T00:50:45.252Z,14.88
2017-06-15T00:50:49.435Z,14.89
2017-06-15T00:50:53.869Z,14.88
2017-06-15T00:50:58.213Z,14.88
2017-06-15T00:51:02.734Z,14.89
2017-06-15T00:51:07.158Z,14.89
2017-06-15T00:51:11.587Z,14.88
2017-06-15T00:51:15.781Z,14.88
2017-06-15T00:51:20.235Z,14.87
2017-06-15T00:51:24.662Z,14.88
2017-06-15T00:51:28.984Z,14.88
2017-06-15T00:51:33.299Z,14.88
2017-06-15T00:51:37.726Z,14.88
2017-06-15T00:51:42.195Z,14.88
2017-06-15T00:51:46.618Z,14.88
2017-06-15T00:51:51.036Z,14.87
2017-06-15T00:51:55.344Z,14.88
2017-06-15T00:51:59.771Z,14.87
2017-06-15T00:52:04.011Z,14.88
2017-06-15T00:52:08.211Z,14.88
2017-06-15T00:52:12.635Z,14.87
2017-06-15T00:52:16.939Z,14.87
2017-06-15T00:52:21.360Z,14.88
2017-06-15T00:52:25.787Z,14.88
2017-06-15T00:52:30.227Z,14.88
2017-06-15T00:52:34.654Z,14.88
2017-06-15T00:52:39.075Z,14.89
2017-06-15T00:52:43.377Z,14.89
2017-06-15T00:52:47.797Z,14.88
2017-06-15T00:52:52.104Z,14.89
2017-06-15T00:52:56.414Z,14.89
2017-06-15T00:53:00.875Z,14.88
2017-06-15T00:53:05.299Z,14.89
2017-06-15T00:53:09.721Z,14.87
2017-06-15T00:53:14.025Z,14.89
2017-06-15T00:53:18.337Z,14.88
2017-06-15T00:53:22.761Z,14.88
2017-06-15T00:53:27.181Z,14.88
2017-06-15T00:53:31.608Z,14.88
2017-06-15T00:53:36.026Z,14.87
2017-06-15T00:53:40.217Z,14.89
2017-06-15T00:53:44.527Z,14.88
2017-06-15T00:53:48.839Z,14.89
2017-06-15T00:53:53.141Z,14.88
2017-06-15T00:53:57.445Z,14.89
2017-06-15T00:54:01.864Z,14.89
2017-06-15T00:54:06.294Z,14.89
2017-06-15T00:54:10.740Z,14.88
2017-06-15T00:54:15.041Z,14.88
2017-06-15T00:54:19.463Z,14.89
2017-06-15T00:54:23.889Z,14.89
2017-06-15T00:54:28.087Z,14.89
2017-06-15T00:54:32.514Z,14.89
2017-06-15T00:54:36.938Z,14.89
2017-06-15T00:54:41.358Z,14.88
2017-06-15T00:54:45.783Z,14.89
2017-06-15T00:54:50.209Z,14.89
2017-06-15T00:54:54.561Z,14.89
2017-06-15T00:54:58.982Z,14.89
2017-06-15T00:55:03.349Z,14.89
2017-06-15T00:55:07.769Z,14.89
2017-06-15T00:55:12.193Z,14.89
2017-06-15T00:55:16.395Z,14.88
2017-06-15T00:55:20.705Z,14.88
2017-06-15T00:55:25.128Z,14.9
2017-06-15T00:55:29.567Z,14.9
2017-06-15T00:55:33.985Z,14.89
2017-06-15T00:55:38.295Z,14.89
2017-06-15T00:55:42.719Z,14.89
2017-06-15T00:55:47.139Z,14.89
2017-06-15T00:55:51.560Z,14.89
2017-06-15T00:55:55.985Z,14.89
2017-06-15T00:56:00.286Z,14.89
2017-06-15T00:56:04.482Z,14.9
2017-06-15T00:56:08.686Z,14.9
2017-06-15T00:56:13.109Z,14.89
2017-06-15T00:56:17.412Z,14.9
2017-06-15T00:56:21.836Z,14.89
2017-06-15T00:56:26.258Z,14.9
2017-06-15T00:56:30.581Z,14.9
2017-06-15T00:56:35.005Z,14.89
2017-06-15T00:56:39.425Z,14.9